CYUL

Montreal / Pierre Elliott Trudeau International Airport

Montréal, Quebec, Canada
METAR CYUL 180831Z 08008KT 15SM BKN013 BKN140 M13/M17 A3017 RMK SC5AC2 SLP221
Observed Flight Rules
Dec-18 @ 08:31 UTC (29 minutes ago) Marginal Visual Flight Rules
Wind Visibility Clouds
80° at 8 knots 15 miles
  • Broken at 1,300' AGL
  • Broken at 14,000' AGL
Temperatures Readings
Current -13°C / 9°F
Dewpoint -17°C / 1°F
Humidity 72%
Altimeter 30.17" Hg
Pressure 1022.1 hPa
Elevation 36
METAR CYUL 180831Z 08008KT 15SM BKN013 BKN140 M13/M17 A3017 RMK SC5AC2 SLP221
Observed Flight Rules
Dec-18 @ 08:31 UTC
(29 minutes ago)
MVFR
Wind Visibility
80° at 8 knots 15 miles
Clouds
  • Broken at 1,300' AGL
  • Broken at 14,000' AGL
Temperature Dewpoint
-13°C / 9°F -17°C / 1°F
Humidity Altimeter Pressure
72% 30.17" Hg 1022.1 hPa